05-12--15-12: Inestable y calido a caluroso centro y norte

Avatar de Usuario
Fedex
Mensajes: 1251
Registrado: Jue Jul 17, 2014 3:30 pm
Ubicación: Villa Ballester, San Martin, Buenos Aires
Contactar:

Re: 05-12--15-12: Inestable y calido a caluroso centro y norte

Mensajepor Fedex » Jue Dic 07, 2017 12:27 am

Llegó el viento. Lamentable el ACP tarde.
Intensas ráfagas secas. Se llenó de nubes bajas
El universo tiende al equilibrio

Avatar de Usuario
maatii96
Mensajes: 3580
Registrado: Lun Abr 16, 2012 7:07 pm
Ubicación: Ramos Mejía

Re: 05-12--15-12: Inestable y calido a caluroso centro y norte

Mensajepor maatii96 » Jue Dic 07, 2017 12:27 am

Bastantes relámpagos y se puso ventoso el tema.

Avatar de Usuario
Diecha
Mensajes: 4805
Registrado: Jue Ago 25, 2011 9:31 pm
Ubicación: Lomas de Zamora

Re: 05-12--15-12: Inestable y calido a caluroso centro y norte

Mensajepor Diecha » Jue Dic 07, 2017 12:28 am

- Aeroparque 00 hs: SABE 070300Z 06001KT 9999 FEW050CB 24/21 Q1009
- Ezeiza 00 hs: SAEZ 070300Z 21011G25KT 180V250 9000 -TSRA SCT030 FEW040CB BKN070 21/17 Q1011

- Ezeiza 00:12 hs: SAEZ 070312Z 19013G25KT 160V240 1500 R11/1400N +TSRA BKN004 FEW040CB 18/17 Q1012

Imagen
SPOILER - El siguiente texto está oculto. Presioná en la barra para mostrarlo.
Imagen
Imagen
Imagen
Imagen
Imagen
Última edición por Diecha el Jue Dic 07, 2017 12:34 am, editado 1 vez en total.

Avatar de Usuario
Ezequiel95
Mensajes: 4560
Registrado: Jue Dic 10, 2015 12:33 pm
Ubicación: Marcos Paz, Buenos Aires
Contactar:

Re: 05-12--15-12: Inestable y calido a caluroso centro y norte

Mensajepor Ezequiel95 » Jue Dic 07, 2017 12:31 am

Por aca ahora hay unos breves chaparrones con gotas enormes, según el radar de pergamino, la acción sigue para mas tarde!!

lucasgar
Mensajes: 1826
Registrado: Vie Ago 22, 2014 7:40 pm
Ubicación: San Justo, Oeste del GBA

Re: 05-12--15-12: Inestable y calido a caluroso centro y norte

Mensajepor lucasgar » Jue Dic 07, 2017 12:32 am

Ahora sí, comenzó a llover intensamente por acá en San Justo! Hay bastante actividad eléctrica también.
Última edición por lucasgar el Jue Dic 07, 2017 12:34 am, editado 1 vez en total.
"Siempre nombraré la estación meteorológica y/o localidad de procedencia de los datos meteorológicos, sin importar lo que opinen los demás"

Visitá mi nueva página de musica: https://www.facebook.com/InternationalPopRockMusic/

Avatar de Usuario
MOTORHOMEMASTER
Mensajes: 4166
Registrado: Lun May 16, 2011 2:20 pm
Ubicación: Castelar o Hurlingham, Prov. Bs. As.

Re: 05-12--15-12: Inestable y calido a caluroso centro y norte

Mensajepor MOTORHOMEMASTER » Jue Dic 07, 2017 12:34 am

Trueno lejano por Castelar

Avatar de Usuario
diegotelesa
Mensajes: 947
Registrado: Mié Jul 24, 2013 10:48 pm
Ubicación: Ramos Mejía

Re: 05-12--15-12: Inestable y calido a caluroso centro y norte

Mensajepor diegotelesa » Jue Dic 07, 2017 12:34 am

Se largó acá!

Avatar de Usuario
Seba
Mensajes: 14190
Registrado: Mié Jul 15, 2009 3:31 pm
Ubicación: Palermo, CABA.
Contactar:

Re: 05-12--15-12: Inestable y calido a caluroso centro y norte

Mensajepor Seba » Jue Dic 07, 2017 12:34 am

Mucho viento recién, ráfagas de 70 km/h tal vez.
Y la actividad eléctrica al SE es tremenda eh.
Imagen

Avatar de Usuario
jotape
Mensajes: 2571
Registrado: Jue Ene 10, 2013 12:59 am
Ubicación: Bernal, Buenos Aires
Contactar:

Re: 05-12--15-12: Inestable y calido a caluroso centro y norte

Mensajepor jotape » Jue Dic 07, 2017 12:34 am

Mucha lluvia, piedras sueltas y viento intenso!

Enviado desde mi SM-A510M mediante Tapatalk
ImagenImagenImagen

Avatar de Usuario
diegotelesa
Mensajes: 947
Registrado: Mié Jul 24, 2013 10:48 pm
Ubicación: Ramos Mejía

Re: 05-12--15-12: Inestable y calido a caluroso centro y norte

Mensajepor diegotelesa » Jue Dic 07, 2017 12:35 am

Truenos!


Volver a “Seguimientos Meteorológicos”

¿Quién está conectado?

Usuarios navegando por este Foro: daros22 y 4 invitados